createdAt,value
2023-04-02T00:01:47.167Z,100194.81
2023-04-02T00:04:16.542Z,100177.47
2023-04-02T00:06:46.443Z,100203.97
2023-04-02T00:09:13.484Z,100205.72
2023-04-02T00:11:49.909Z,100176.06
2023-04-02T00:14:30.088Z,100199.19
2023-04-02T00:16:59.999Z,100202.47
2023-04-02T00:19:49.142Z,100205.97
2023-04-02T00:22:22.512Z,100216.13
2023-04-02T00:24:55.121Z,100214.38
2023-04-02T00:27:23.112Z,100195.81
2023-04-02T00:29:53.381Z,100206.56
2023-04-02T00:32:27.818Z,100210.50
2023-04-02T00:34:56.219Z,100205.47
2023-04-02T00:37:28.378Z,100198.97
2023-04-02T00:40:02.292Z,100202.00
2023-04-02T00:42:31.716Z,100158.81
2023-04-02T00:45:00.066Z,100188.06
2023-04-02T00:47:32.025Z,100198.25
2023-04-02T00:50:21.088Z,100205.28
2023-04-02T00:52:52.536Z,100203.13
2023-04-02T00:55:28.125Z,100207.59
2023-04-02T00:57:57.970Z,100203.72
2023-04-02T01:00:36.309Z,100205.25
2023-04-02T01:03:13.268Z,100206.03
2023-04-02T01:05:42.641Z,100205.34
2023-04-02T01:08:23.787Z,100205.97
2023-04-02T01:10:53.750Z,100200.03
2023-04-02T01:13:23.964Z,100209.97
2023-04-02T01:16:05.618Z,100153.69
2023-04-02T01:18:36.965Z,100210.44
2023-04-02T01:21:22.448Z,100209.69
2023-04-02T01:24:06.167Z,100216.16
2023-04-02T01:26:37.049Z,100208.59
2023-04-02T01:29:14.312Z,100190.84
2023-04-02T01:31:42.498Z,100198.94
2023-04-02T01:34:13.754Z,100210.38
2023-04-02T01:37:02.129Z,100215.75
2023-04-02T01:39:51.324Z,100229.75
2023-04-02T01:42:35.837Z,100226.94
2023-04-02T01:45:08.640Z,100226.63
2023-04-02T01:47:36.074Z,100220.31
2023-04-02T01:50:24.080Z,100226.72
2023-04-02T01:52:55.782Z,100239.28
2023-04-02T01:55:42.440Z,100221.34
2023-04-02T01:58:12.849Z,100240.53
2023-04-02T02:00:57.174Z,100236.06
2023-04-02T02:03:24.956Z,100252.28
2023-04-02T02:05:52.735Z,100260.09
2023-04-02T02:08:38.421Z,100258.16
2023-04-02T02:11:07.872Z,100249.97
2023-04-02T02:13:35.060Z,100241.53
2023-04-02T02:16:04.431Z,100217.63
2023-04-02T02:18:32.554Z,100229.28
2023-04-02T02:21:04.144Z,100250.84
2023-04-02T02:23:32.578Z,100246.59
2023-04-02T02:25:59.982Z,100235.88
2023-04-02T02:28:34.227Z,100245.94
2023-04-02T02:31:13.037Z,100250.66
2023-04-02T02:33:46.757Z,100245.63
2023-04-02T02:36:26.252Z,100250.03
2023-04-02T02:39:05.291Z,100251.59
2023-04-02T02:42:01.273Z,100253.78
2023-04-02T02:44:35.078Z,100254.41
2023-04-02T02:47:26.828Z,100255.34
2023-04-02T02:49:58.982Z,100258.84
2023-04-02T02:52:37.400Z,100246.19
2023-04-02T02:55:18.474Z,100211.81
2023-04-02T02:58:16.330Z,100236.06
2023-04-02T03:00:54.655Z,100246.13
2023-04-02T03:03:27.654Z,100223.94
2023-04-02T03:06:03.703Z,100247.03
2023-04-02T03:08:58.209Z,100226.22
2023-04-02T03:11:56.428Z,100249.06
2023-04-02T03:14:34.217Z,100250.66
2023-04-02T03:17:20.525Z,100214.31
2023-04-02T03:20:33.428Z,100224.81
2023-04-02T03:23:22.671Z,100249.47
2023-04-02T03:26:31.858Z,100250.44
2023-04-02T03:29:19.609Z,100251.22
2023-04-02T03:32:16.591Z,100249.97
2023-04-02T03:34:54.580Z,100248.91
2023-04-02T03:37:51.245Z,100247.25
2023-04-02T03:40:27.248Z,100238.03
2023-04-02T03:43:06.578Z,100250.28
2023-04-02T03:45:41.392Z,100231.44
2023-04-02T03:48:24.546Z,100234.72
2023-04-02T03:50:58.406Z,100251.38
2023-04-02T03:53:27.940Z,100250.88
2023-04-02T03:55:57.181Z,100237.31
2023-04-02T03:58:41.291Z,100216.25
2023-04-02T04:01:12.647Z,100192.81
2023-04-02T04:03:51.173Z,100242.81
2023-04-02T04:06:21.457Z,100259.69
2023-04-02T04:08:58.460Z,100242.09
2023-04-02T04:11:35.881Z,100265.06
2023-04-02T04:14:17.232Z,100262.88
2023-04-02T04:17:15.664Z,100264.78
2023-04-02T04:19:55.112Z,100234.13
2023-04-02T04:22:32.012Z,100276.78
2023-04-02T04:25:35.220Z,100276.00
2023-04-02T04:28:38.625Z,100266.38
2023-04-02T04:31:27.142Z,100284.63
2023-04-02T04:34:05.272Z,100285.72
2023-04-02T04:36:54.629Z,100294.72
2023-04-02T04:39:50.677Z,100294.09
2023-04-02T04:42:28.764Z,100297.06
2023-04-02T04:45:31.284Z,100284.16
2023-04-02T04:48:04.871Z,100288.09
2023-04-02T04:51:01.564Z,100285.41
2023-04-02T04:53:30.472Z,100289.34
2023-04-02T04:56:17.991Z,100219.53
2023-04-02T04:59:29.685Z,100293.13
2023-04-02T05:02:13.203Z,100295.16
2023-04-02T05:04:43.716Z,100301.91
2023-04-02T05:07:43.364Z,100299.06
2023-04-02T05:10:25.466Z,100301.25
2023-04-02T05:13:11.949Z,100291.63
2023-04-02T05:16:02.080Z,100296.31
2023-04-02T05:18:40.109Z,100302.94
2023-04-02T05:21:18.258Z,100302.59
2023-04-02T05:24:32.087Z,100309.94
2023-04-02T05:27:05.673Z,100308.97
2023-04-02T05:29:38.155Z,100319.03
2023-04-02T05:32:14.150Z,100327.94
2023-04-02T05:34:46.155Z,100271.75
2023-04-02T05:37:21.391Z,100294.03
2023-04-02T05:39:56.667Z,100331.56
2023-04-02T05:42:28.436Z,100332.97
2023-04-02T05:45:28.869Z,100338.72
2023-04-02T05:48:02.682Z,100324.63
2023-04-02T05:50:43.158Z,100319.66
2023-04-02T05:53:22.938Z,100342.13
2023-04-02T05:56:15.531Z,100348.03
2023-04-02T05:58:59.535Z,100342.63
2023-04-02T06:01:38.215Z,100354.38
2023-04-02T06:04:21.082Z,100316.69
2023-04-02T06:07:14.256Z,100325.59
2023-04-02T06:09:52.045Z,100352.38
2023-04-02T06:12:42.045Z,100342.66
2023-04-02T06:15:17.443Z,100356.69
2023-04-02T06:18:00.004Z,100355.72
2023-04-02T06:20:28.354Z,100360.69
2023-04-02T06:23:12.860Z,100365.22
2023-04-02T06:25:45.110Z,100368.44
2023-04-02T06:28:21.467Z,100359.22
2023-04-02T06:30:59.754Z,100357.13
2023-04-02T06:33:27.768Z,100362.22
2023-04-02T06:35:56.300Z,100354.53
2023-04-02T06:38:31.558Z,100312.78
2023-04-02T06:41:15.788Z,100348.63
2023-04-02T06:44:06.793Z,100370.00
2023-04-02T06:46:52.511Z,100339.09
2023-04-02T06:49:37.456Z,100351.72
2023-04-02T06:52:15.666Z,100361.63
2023-04-02T06:54:43.198Z,100369.84
2023-04-02T06:57:13.533Z,100338.25
2023-04-02T06:59:43.636Z,100367.03
2023-04-02T07:02:31.337Z,100374.38
2023-04-02T07:05:09.365Z,100348.63
2023-04-02T07:07:40.425Z,100353.34
2023-04-02T07:10:11.733Z,100369.88
2023-04-02T07:12:38.960Z,100365.06
2023-04-02T07:15:06.873Z,100366.69
2023-04-02T07:17:34.108Z,100342.19
2023-04-02T07:20:01.309Z,100371.22
2023-04-02T07:22:28.683Z,100363.09
2023-04-02T07:24:59.918Z,100320.47
2023-04-02T07:27:28.259Z,100317.59
2023-04-02T07:29:55.471Z,100347.50
2023-04-02T07:32:22.559Z,100379.69
2023-04-02T07:34:49.816Z,100378.25
2023-04-02T07:37:17.242Z,100364.03
2023-04-02T07:39:44.374Z,100383.44
2023-04-02T07:42:11.489Z,100351.09
2023-04-02T07:44:38.678Z,100311.94
2023-04-02T07:47:06.125Z,100375.41
2023-04-02T07:49:33.303Z,100359.56
2023-04-02T07:52:00.931Z,100377.00
2023-04-02T07:54:28.442Z,100354.28
2023-04-02T07:56:55.938Z,100390.78
2023-04-02T07:59:23.239Z,100375.75
2023-04-02T08:01:52.798Z,100375.78
2023-04-02T08:04:22.923Z,100376.31
2023-04-02T08:06:50.825Z,100366.38
2023-04-02T08:09:18.214Z,100372.63
2023-04-02T08:11:46.714Z,100384.88
2023-04-02T08:14:14.589Z,100392.97
2023-04-02T08:16:49.432Z,100380.53
2023-04-02T08:19:17.108Z,100394.31
2023-04-02T08:21:44.473Z,100380.88
2023-04-02T08:24:11.698Z,100281.19
2023-04-02T08:26:38.722Z,100384.81
2023-04-02T08:29:06.089Z,100380.41
2023-04-02T08:31:33.247Z,100379.16
2023-04-02T08:34:01.682Z,100357.50
2023-04-02T08:36:38.083Z,100375.53
2023-04-02T08:39:11.040Z,100346.66
2023-04-02T08:41:45.185Z,100369.63
2023-04-02T08:45:10.864Z,100367.50
2023-04-02T08:47:44.444Z,100386.34
2023-04-02T08:50:19.113Z,100386.59
2023-04-02T08:52:46.395Z,100386.06
2023-04-02T08:55:26.069Z,100368.34
2023-04-02T08:58:09.064Z,100384.31
2023-04-02T09:00:45.807Z,100385.63
2023-04-02T09:03:27.587Z,100339.25
2023-04-02T09:05:56.243Z,100348.59
2023-04-02T09:08:29.689Z,100339.25
2023-04-02T09:11:03.448Z,100381.19
2023-04-02T09:13:33.210Z,100368.41
2023-04-02T09:16:16.488Z,100380.66
2023-04-02T09:18:45.443Z,100369.97
2023-04-02T09:21:22.048Z,100372.31
2023-04-02T09:23:50.742Z,100331.66
2023-04-02T09:26:27.355Z,100324.34
2023-04-02T09:29:13.832Z,100369.06
2023-04-02T09:31:56.568Z,100370.66
2023-04-02T09:34:37.876Z,100276.31
2023-04-02T09:37:16.490Z,100354.13
2023-04-02T09:39:45.904Z,100346.50
2023-04-02T09:42:35.395Z,100206.47
2023-04-02T09:45:25.900Z,100321.44
2023-04-02T09:47:58.277Z,100350.75
2023-04-02T09:50:30.501Z,100356.75
2023-04-02T09:53:00.015Z,100360.34
2023-04-02T09:55:31.412Z,100267.47
2023-04-02T09:58:28.599Z,100359.03
2023-04-02T10:00:56.426Z,100359.59
2023-04-02T10:03:29.389Z,100249.94
2023-04-02T10:06:15.414Z,100323.56
2023-04-02T10:08:46.042Z,100360.44
2023-04-02T10:11:43.638Z,100325.84
2023-04-02T10:14:22.044Z,100323.34
2023-04-02T10:16:55.362Z,100348.72
2023-04-02T10:19:33.093Z,100350.56
2023-04-02T10:22:18.090Z,100245.28
2023-04-02T10:24:46.263Z,100343.16
2023-04-02T10:27:22.682Z,100358.78
2023-04-02T10:30:09.146Z,100352.88
2023-04-02T10:32:57.940Z,100358.50
2023-04-02T10:36:01.094Z,100336.78
2023-04-02T10:38:42.717Z,100346.06
2023-04-02T10:41:25.173Z,100351.84
2023-04-02T10:44:19.436Z,100351.09
2023-04-02T10:47:08.933Z,100361.69
2023-04-02T10:49:48.280Z,100350.34
2023-04-02T10:52:31.444Z,100342.63
2023-04-02T10:55:05.140Z,100346.22
2023-04-02T10:57:39.611Z,100347.00
2023-04-02T11:00:18.925Z,100345.97
2023-04-02T11:02:49.462Z,100341.56
2023-04-02T11:05:23.822Z,100332.06
2023-04-02T11:08:21.344Z,100334.59
2023-04-02T11:11:18.728Z,100344.00
2023-04-02T11:14:14.153Z,100343.56
2023-04-02T11:16:44.577Z,100338.59
2023-04-02T11:19:15.292Z,100350.03
2023-04-02T11:22:06.771Z,100343.69
2023-04-02T11:24:46.725Z,100327.34
2023-04-02T11:27:34.075Z,100332.44
2023-04-02T11:30:04.433Z,100334.44
2023-04-02T11:32:43.101Z,100329.94
2023-04-02T11:35:32.077Z,100332.66
2023-04-02T11:38:09.734Z,100338.56
2023-04-02T11:40:36.847Z,100331.72
2023-04-02T11:43:45.987Z,100327.03
2023-04-02T11:46:19.131Z,100328.75
2023-04-02T11:48:46.898Z,100321.88
2023-04-02T11:51:23.384Z,100324.94
2023-04-02T11:53:53.958Z,100315.66
2023-04-02T11:56:50.580Z,100335.22
2023-04-02T11:59:33.959Z,100324.94
2023-04-02T12:02:14.783Z,100305.56
2023-04-02T12:04:48.038Z,100325.06
2023-04-02T12:07:52.515Z,100323.88
2023-04-02T12:10:22.687Z,100320.03
2023-04-02T12:12:50.671Z,100302.63
2023-04-02T12:15:45.143Z,100321.41
2023-04-02T12:18:25.310Z,100313.97
2023-04-02T12:20:57.720Z,100316.47
2023-04-02T12:23:37.470Z,100296.81
2023-04-02T12:26:24.488Z,100308.19
2023-04-02T12:28:51.733Z,100287.56
2023-04-02T12:31:25.204Z,100309.88
2023-04-02T12:33:53.151Z,100313.31
2023-04-02T12:36:22.888Z,100313.25
2023-04-02T12:38:53.404Z,100272.63
2023-04-02T12:41:27.574Z,100304.75
2023-04-02T12:44:24.173Z,100300.66
2023-04-02T12:46:52.535Z,100307.25
2023-04-02T12:49:37.165Z,100303.06
2023-04-02T12:52:16.840Z,100281.97
2023-04-02T12:54:46.274Z,100307.25
2023-04-02T12:57:40.828Z,100280.00
2023-04-02T13:00:21.182Z,100310.22
2023-04-02T13:03:07.051Z,100306.53
2023-04-02T13:05:42.797Z,100302.03
2023-04-02T13:08:19.592Z,100262.03
2023-04-02T13:11:01.942Z,100311.00
2023-04-02T13:13:40.805Z,100306.47
2023-04-02T13:16:32.763Z,100312.78
2023-04-02T13:19:23.937Z,100301.91
2023-04-02T13:21:52.737Z,100271.03
2023-04-02T13:24:25.940Z,100309.47
2023-04-02T13:27:01.173Z,100305.50
2023-04-02T13:29:33.546Z,100309.41
2023-04-02T13:32:06.062Z,100296.63
2023-04-02T13:34:33.304Z,100286.00
2023-04-02T13:37:00.899Z,100307.00
2023-04-02T13:39:30.397Z,100306.53
2023-04-02T13:42:03.026Z,100317.06
2023-04-02T13:44:37.579Z,100263.59
2023-04-02T13:47:04.717Z,100311.44
2023-04-02T13:49:32.116Z,100270.44
2023-04-02T13:52:05.125Z,100282.25
2023-04-02T13:54:43.653Z,100309.97
2023-04-02T13:57:11.704Z,100308.91
2023-04-02T13:59:38.936Z,100294.47
2023-04-02T14:02:17.257Z,100306.19
2023-04-02T14:04:55.821Z,100294.13
2023-04-02T14:07:41.916Z,100307.72
2023-04-02T14:10:33.820Z,100308.63
2023-04-02T14:13:13.180Z,100308.56
2023-04-02T14:15:52.642Z,100293.75
2023-04-02T14:18:44.707Z,100302.63
2023-04-02T14:21:35.050Z,100307.59
2023-04-02T14:24:26.583Z,100305.25
2023-04-02T14:26:59.893Z,100309.41
2023-04-02T14:29:35.977Z,100321.41
2023-04-02T14:32:09.337Z,100313.59
2023-04-02T14:34:50.498Z,100320.78
2023-04-02T14:37:42.095Z,100310.94
2023-04-02T14:40:32.138Z,100316.53
2023-04-02T14:43:24.858Z,100317.22
2023-04-02T14:45:59.502Z,100318.63
2023-04-02T14:48:45.256Z,100314.22
2023-04-02T14:51:35.622Z,100322.84
2023-04-02T14:54:21.781Z,100322.97
2023-04-02T14:57:00.786Z,100331.97
2023-04-02T14:59:52.935Z,100307.25
2023-04-02T15:02:43.604Z,100336.63
2023-04-02T15:05:41.790Z,100341.63
2023-04-02T15:08:39.410Z,100347.38
2023-04-02T15:11:15.578Z,100350.50
2023-04-02T15:14:02.436Z,100358.66
2023-04-02T15:16:29.942Z,100346.22
2023-04-02T15:18:58.819Z,100345.22
2023-04-02T15:21:55.863Z,100365.81
2023-04-02T15:24:37.764Z,100371.31
2023-04-02T15:27:25.166Z,100386.00
2023-04-02T15:29:55.872Z,100363.59
2023-04-02T15:32:37.946Z,100379.75
2023-04-02T15:35:31.667Z,100384.72
2023-04-02T15:38:10.722Z,100374.84
2023-04-02T15:41:10.153Z,100384.50
2023-04-02T15:43:48.461Z,100335.78
2023-04-02T15:46:24.548Z,100377.44
2023-04-02T15:49:05.680Z,100357.94
2023-04-02T15:51:41.873Z,100382.38
2023-04-02T15:54:30.454Z,100389.44
2023-04-02T15:57:22.627Z,100387.34
2023-04-02T15:59:57.977Z,100400.94
2023-04-02T16:03:03.012Z,100399.88
2023-04-02T16:05:58.165Z,100392.56
2023-04-02T16:08:58.796Z,100392.34
2023-04-02T16:11:27.446Z,100394.94
2023-04-02T16:14:05.475Z,100406.97
2023-04-02T16:16:36.645Z,100397.59
2023-04-02T16:19:16.112Z,100404.38
2023-04-02T16:22:10.839Z,100408.31
2023-04-02T16:24:38.917Z,100407.25
2023-04-02T16:27:15.734Z,100414.28
2023-04-02T16:29:55.018Z,100413.53
2023-04-02T16:32:51.139Z,100412.47
2023-04-02T16:35:42.750Z,100412.50
2023-04-02T16:38:19.902Z,100406.22
2023-04-02T16:41:25.272Z,100419.53
2023-04-02T16:44:11.336Z,100412.75
2023-04-02T16:46:43.912Z,100408.03
2023-04-02T16:49:41.550Z,100422.63
2023-04-02T16:52:15.164Z,100421.03
2023-04-02T16:55:07.588Z,100429.09
2023-04-02T16:58:04.156Z,100427.78
2023-04-02T17:00:45.904Z,100371.44
2023-04-02T17:03:55.059Z,100426.72
2023-04-02T17:06:31.367Z,100435.25
2023-04-02T17:09:13.704Z,100424.59
2023-04-02T17:11:49.933Z,100391.94
2023-04-02T17:14:39.184Z,100433.91
2023-04-02T17:17:08.912Z,100434.44
2023-04-02T17:19:36.196Z,100431.03
2023-04-02T17:22:05.226Z,100438.56
2023-04-02T17:24:42.882Z,100452.34
2023-04-02T17:27:52.116Z,100454.66
2023-04-02T17:30:29.599Z,100437.19
2023-04-02T17:32:56.693Z,100452.09
2023-04-02T17:35:45.879Z,100459.41
2023-04-02T17:38:20.010Z,100463.53
2023-04-02T17:41:13.098Z,100452.78
2023-04-02T17:44:27.074Z,100469.16
2023-04-02T17:47:32.743Z,100475.91
2023-04-02T17:50:44.640Z,100490.41
2023-04-02T17:53:38.810Z,100482.34
2023-04-02T17:56:24.451Z,100483.59
2023-04-02T17:59:06.979Z,100491.59
2023-04-02T18:02:02.199Z,100487.88
2023-04-02T18:04:52.743Z,100478.78
2023-04-02T18:07:48.816Z,100457.09
2023-04-02T18:10:23.546Z,100499.56
2023-04-02T18:13:07.169Z,100495.09
2023-04-02T18:15:50.941Z,100494.78
2023-04-02T18:18:49.703Z,100500.97
2023-04-02T18:21:58.947Z,100507.91
2023-04-02T18:24:30.236Z,100366.50
2023-04-02T18:27:29.627Z,100510.75
2023-04-02T18:30:29.892Z,100523.47
2023-04-02T18:33:00.001Z,100520.09
2023-04-02T18:36:06.303Z,100518.03
2023-04-02T18:38:52.135Z,100530.78
2023-04-02T18:41:19.208Z,100530.22
2023-04-02T18:44:02.929Z,100533.31
2023-04-02T18:46:36.054Z,100540.25
2023-04-02T18:49:19.659Z,100505.13
2023-04-02T18:51:52.380Z,100540.25
2023-04-02T18:54:32.989Z,100553.53
2023-04-02T18:57:03.059Z,100558.69
2023-04-02T18:59:48.964Z,100566.75
2023-04-02T19:02:45.063Z,100576.59
2023-04-02T19:05:21.621Z,100556.53
2023-04-02T19:07:52.678Z,100570.53
2023-04-02T19:10:38.632Z,100588.25
2023-04-02T19:13:15.495Z,100585.56
2023-04-02T19:16:10.581Z,100587.69
2023-04-02T19:19:00.894Z,100597.00
2023-04-02T19:21:46.647Z,100603.56
2023-04-02T19:24:49.320Z,100608.88
2023-04-02T19:27:48.075Z,100614.56
2023-04-02T19:30:37.970Z,100599.59
2023-04-02T19:33:16.892Z,100620.28
2023-04-02T19:36:05.051Z,100612.22
2023-04-02T19:39:09.753Z,100622.66
2023-04-02T19:41:51.922Z,100618.94
2023-04-02T19:44:20.106Z,100585.69
2023-04-02T19:46:47.731Z,100607.63
2023-04-02T19:49:22.848Z,100622.53
2023-04-02T19:51:51.045Z,100632.84
2023-04-02T19:54:19.086Z,100628.91
2023-04-02T19:56:46.551Z,100620.41
2023-04-02T20:01:44.005Z,100644.00
2023-04-02T20:04:11.336Z,100608.16
2023-04-02T20:06:38.833Z,100600.19
2023-04-02T20:09:07.619Z,100610.03
2023-04-02T20:11:36.880Z,100634.84
2023-04-02T20:14:05.428Z,100638.50
2023-04-02T20:16:33.963Z,100636.16
2023-04-02T20:19:01.277Z,100634.84
2023-04-02T20:21:29.621Z,100600.97
2023-04-02T20:23:56.761Z,100620.44
2023-04-02T20:26:23.888Z,100635.56
2023-04-02T20:28:51.008Z,100597.63
2023-04-02T20:31:19.253Z,100632.63
2023-04-02T20:33:46.779Z,100613.19
2023-04-02T20:36:16.348Z,100630.38
2023-04-02T20:38:45.464Z,100608.75
2023-04-02T20:41:13.054Z,100624.50
2023-04-02T20:43:42.636Z,100628.56
2023-04-02T20:46:12.619Z,100623.03
2023-04-02T20:48:40.516Z,100599.81
2023-04-02T20:51:09.763Z,100617.06
2023-04-02T20:53:38.057Z,100612.91
2023-04-02T20:56:24.747Z,100614.78
2023-04-02T20:58:52.101Z,100615.00
2023-04-02T21:01:28.067Z,100591.84
2023-04-02T21:04:04.842Z,100601.53
2023-04-02T21:06:36.534Z,100608.47
2023-04-02T21:09:08.345Z,100606.78
2023-04-02T21:11:36.978Z,100602.25
2023-04-02T21:14:04.613Z,100604.91
2023-04-02T21:16:32.453Z,100608.84
2023-04-02T21:19:02.932Z,100602.16
2023-04-02T21:21:30.753Z,100611.63
2023-04-02T21:24:03.943Z,100610.63
2023-04-02T21:26:34.743Z,100615.13
2023-04-02T21:29:02.883Z,100599.25
2023-04-02T21:31:33.708Z,100603.66
2023-04-02T21:34:01.068Z,100589.59
2023-04-02T21:36:31.300Z,100605.66
2023-04-02T21:39:00.934Z,100572.00
2023-04-02T21:41:31.488Z,100607.91
2023-04-02T21:44:00.327Z,100616.63
2023-04-02T21:46:30.721Z,100564.75
2023-04-02T21:48:59.535Z,100617.38
2023-04-02T21:51:32.355Z,100594.13
2023-04-02T21:54:00.482Z,100610.59
2023-04-02T21:56:30.097Z,100621.81
2023-04-02T21:58:58.701Z,100627.91
2023-04-02T22:01:28.093Z,100627.25
2023-04-02T22:03:57.240Z,100631.47
2023-04-02T22:06:26.427Z,100595.09
2023-04-02T22:09:05.380Z,100599.34
2023-04-02T22:11:39.021Z,100605.44
2023-04-02T22:14:06.199Z,100626.53
2023-04-02T22:16:35.135Z,100623.19
2023-04-02T22:19:08.193Z,100609.59
2023-04-02T22:21:36.732Z,100615.19
2023-04-02T22:24:07.298Z,100578.41
2023-04-02T22:26:35.191Z,100627.06
2023-04-02T22:29:02.814Z,100614.56
2023-04-02T22:31:31.749Z,100631.09
2023-04-02T22:33:59.640Z,100631.44
2023-04-02T22:36:28.625Z,100616.97
2023-04-02T22:38:57.505Z,100588.25
2023-04-02T22:41:27.472Z,100636.47
2023-04-02T22:43:59.663Z,100636.31
2023-04-02T22:46:28.022Z,100643.72
2023-04-02T22:48:56.438Z,100643.72
2023-04-02T22:51:25.013Z,100651.16
2023-04-02T22:53:54.588Z,100652.72
2023-04-02T22:56:24.977Z,100631.13
2023-04-02T22:58:52.145Z,100645.81
2023-04-02T23:01:25.974Z,100596.66
2023-04-02T23:03:54.842Z,100637.78
2023-04-02T23:06:23.152Z,100630.81
2023-04-02T23:08:51.056Z,100638.69
2023-04-02T23:11:23.816Z,100614.69
2023-04-02T23:13:53.382Z,100630.44
2023-04-02T23:16:21.415Z,100586.19
2023-04-02T23:18:49.132Z,100585.19
2023-04-02T23:21:17.655Z,100635.94
2023-04-02T23:23:46.281Z,100632.91
2023-04-02T23:26:18.439Z,100631.66
2023-04-02T23:28:46.034Z,100632.41
2023-04-02T23:31:20.074Z,100631.47
2023-04-02T23:33:48.767Z,100590.03
2023-04-02T23:36:21.573Z,100623.41
2023-04-02T23:38:48.658Z,100616.03
2023-04-02T23:41:16.828Z,100615.09
2023-04-02T23:43:44.367Z,100598.97
2023-04-02T23:46:11.748Z,100617.25
2023-04-02T23:48:39.232Z,100621.66
2023-04-02T23:51:07.022Z,100603.09
2023-04-02T23:53:34.972Z,100629.75
2023-04-02T23:56:02.309Z,100616.66
2023-04-02T23:58:29.678Z,100618.44
